sensor_id;sensor_type;location;lat;lon;timestamp;P1;durP1;ratioP1;P2;durP2;ratioP2
5616;SDS011;2830;50.656;7.568;2023-03-12T00:02:00;18.13;;;6.05;;
5616;SDS011;2830;50.656;7.568;2023-03-12T00:04:27;15.57;;;6.30;;
5616;SDS011;2830;50.656;7.568;2023-03-12T00:06:54;13.20;;;5.75;;
5616;SDS011;2830;50.656;7.568;2023-03-12T00:09:21;13.57;;;5.85;;
5616;SDS011;2830;50.656;7.568;2023-03-12T00:11:48;15.45;;;6.18;;
5616;SDS011;2830;50.656;7.568;2023-03-12T00:14:15;13.23;;;5.93;;
5616;SDS011;2830;50.656;7.568;2023-03-12T00:16:42;12.80;;;5.65;;
5616;SDS011;2830;50.656;7.568;2023-03-12T00:19:09;12.38;;;5.70;;
5616;SDS011;2830;50.656;7.568;2023-03-12T00:21:38;13.82;;;5.88;;
5616;SDS011;2830;50.656;7.568;2023-03-12T00:24:05;13.15;;;6.82;;
5616;SDS011;2830;50.656;7.568;2023-03-12T00:26:33;15.65;;;6.15;;
5616;SDS011;2830;50.656;7.568;2023-03-12T00:28:59;12.75;;;5.80;;
5616;SDS011;2830;50.656;7.568;2023-03-12T00:31:27;13.98;;;6.20;;
5616;SDS011;2830;50.656;7.568;2023-03-12T00:33:58;16.23;;;6.30;;
5616;SDS011;2830;50.656;7.568;2023-03-12T00:36:28;12.30;;;5.80;;
5616;SDS011;2830;50.656;7.568;2023-03-12T00:38:56;11.50;;;5.40;;
5616;SDS011;2830;50.656;7.568;2023-03-12T00:41:25;12.60;;;6.15;;
5616;SDS011;2830;50.656;7.568;2023-03-12T00:43:52;12.55;;;5.40;;
5616;SDS011;2830;50.656;7.568;2023-03-12T00:46:19;13.38;;;6.55;;
5616;SDS011;2830;50.656;7.568;2023-03-12T00:48:46;13.93;;;6.55;;
5616;SDS011;2830;50.656;7.568;2023-03-12T00:51:13;12.27;;;5.70;;
5616;SDS011;2830;50.656;7.568;2023-03-12T00:53:40;12.48;;;5.90;;
5616;SDS011;2830;50.656;7.568;2023-03-12T00:56:07;15.80;;;8.27;;
5616;SDS011;2830;50.656;7.568;2023-03-12T00:58:34;14.95;;;5.35;;
5616;SDS011;2830;50.656;7.568;2023-03-12T01:01:03;14.82;;;5.53;;
5616;SDS011;2830;50.656;7.568;2023-03-12T01:03:30;10.98;;;4.95;;
5616;SDS011;2830;50.656;7.568;2023-03-12T01:05:57;12.40;;;5.95;;
5616;SDS011;2830;50.656;7.568;2023-03-12T01:08:23;13.45;;;6.03;;
5616;SDS011;2830;50.656;7.568;2023-03-12T01:10:50;14.43;;;5.47;;
5616;SDS011;2830;50.656;7.568;2023-03-12T01:13:17;11.40;;;5.40;;
5616;SDS011;2830;50.656;7.568;2023-03-12T01:15:44;9.75;;;4.68;;
5616;SDS011;2830;50.656;7.568;2023-03-12T01:18:10;13.85;;;6.07;;
5616;SDS011;2830;50.656;7.568;2023-03-12T01:20:37;13.27;;;5.78;;
5616;SDS011;2830;50.656;7.568;2023-03-12T01:23:05;21.90;;;6.55;;
5616;SDS011;2830;50.656;7.568;2023-03-12T01:25:34;14.18;;;5.45;;
5616;SDS011;2830;50.656;7.568;2023-03-12T01:28:01;12.30;;;5.85;;
5616;SDS011;2830;50.656;7.568;2023-03-12T01:30:28;15.63;;;6.50;;
5616;SDS011;2830;50.656;7.568;2023-03-12T01:32:55;17.35;;;6.38;;
5616;SDS011;2830;50.656;7.568;2023-03-12T01:35:21;11.82;;;5.63;;
5616;SDS011;2830;50.656;7.568;2023-03-12T01:37:48;18.38;;;6.53;;
5616;SDS011;2830;50.656;7.568;2023-03-12T01:40:15;11.93;;;6.07;;
5616;SDS011;2830;50.656;7.568;2023-03-12T01:42:50;18.90;;;6.80;;
5616;SDS011;2830;50.656;7.568;2023-03-12T01:48:35;13.73;;;6.32;;
5616;SDS011;2830;50.656;7.568;2023-03-12T01:51:05;14.40;;;6.78;;
5616;SDS011;2830;50.656;7.568;2023-03-12T01:53:35;17.02;;;6.95;;
5616;SDS011;2830;50.656;7.568;2023-03-12T01:56:03;10.77;;;5.30;;
5616;SDS011;2830;50.656;7.568;2023-03-12T01:58:31;14.32;;;5.78;;
5616;SDS011;2830;50.656;7.568;2023-03-12T02:00:59;16.20;;;7.10;;
5616;SDS011;2830;50.656;7.568;2023-03-12T02:03:26;15.93;;;6.05;;
5616;SDS011;2830;50.656;7.568;2023-03-12T02:05:55;19.20;;;7.60;;
5616;SDS011;2830;50.656;7.568;2023-03-12T02:08:29;13.30;;;6.20;;
5616;SDS011;2830;50.656;7.568;2023-03-12T02:10:56;14.68;;;6.35;;
5616;SDS011;2830;50.656;7.568;2023-03-12T02:13:23;18.13;;;7.25;;
5616;SDS011;2830;50.656;7.568;2023-03-12T02:15:49;13.02;;;6.50;;
5616;SDS011;2830;50.656;7.568;2023-03-12T02:18:17;18.40;;;7.30;;
5616;SDS011;2830;50.656;7.568;2023-03-12T02:20:47;14.18;;;6.50;;
5616;SDS011;2830;50.656;7.568;2023-03-12T02:24:00;15.48;;;5.70;;
5616;SDS011;2830;50.656;7.568;2023-03-12T02:26:30;15.23;;;6.00;;
5616;SDS011;2830;50.656;7.568;2023-03-12T02:28:59;14.93;;;6.18;;
5616;SDS011;2830;50.656;7.568;2023-03-12T02:31:27;13.85;;;6.95;;
5616;SDS011;2830;50.656;7.568;2023-03-12T02:33:58;15.80;;;5.90;;
5616;SDS011;2830;50.656;7.568;2023-03-12T02:36:26;17.17;;;6.10;;
5616;SDS011;2830;50.656;7.568;2023-03-12T02:38:53;18.25;;;6.50;;
5616;SDS011;2830;50.656;7.568;2023-03-12T02:41:22;14.05;;;6.90;;
5616;SDS011;2830;50.656;7.568;2023-03-12T02:43:57;14.60;;;6.35;;
5616;SDS011;2830;50.656;7.568;2023-03-12T02:46:24;16.45;;;6.93;;
5616;SDS011;2830;50.656;7.568;2023-03-12T02:48:51;14.75;;;6.15;;
5616;SDS011;2830;50.656;7.568;2023-03-12T02:51:20;13.50;;;5.72;;
5616;SDS011;2830;50.656;7.568;2023-03-12T02:53:47;13.80;;;6.45;;
5616;SDS011;2830;50.656;7.568;2023-03-12T02:56:20;13.85;;;6.85;;
5616;SDS011;2830;50.656;7.568;2023-03-12T02:58:51;12.65;;;6.03;;
5616;SDS011;2830;50.656;7.568;2023-03-12T03:01:18;12.00;;;5.68;;
5616;SDS011;2830;50.656;7.568;2023-03-12T03:03:46;16.10;;;5.72;;
5616;SDS011;2830;50.656;7.568;2023-03-12T03:06:13;14.02;;;5.90;;
5616;SDS011;2830;50.656;7.568;2023-03-12T03:08:40;15.60;;;5.10;;
5616;SDS011;2830;50.656;7.568;2023-03-12T03:11:07;14.82;;;6.07;;
5616;SDS011;2830;50.656;7.568;2023-03-12T03:13:34;14.35;;;6.65;;
5616;SDS011;2830;50.656;7.568;2023-03-12T03:16:01;13.80;;;5.85;;
5616;SDS011;2830;50.656;7.568;2023-03-12T03:18:29;12.13;;;6.20;;
5616;SDS011;2830;50.656;7.568;2023-03-12T03:20:57;17.67;;;6.30;;
5616;SDS011;2830;50.656;7.568;2023-03-12T03:23:28;12.52;;;4.70;;
5616;SDS011;2830;50.656;7.568;2023-03-12T03:25:55;15.02;;;5.50;;
5616;SDS011;2830;50.656;7.568;2023-03-12T03:28:23;12.07;;;4.93;;
5616;SDS011;2830;50.656;7.568;2023-03-12T03:30:52;14.45;;;5.03;;
5616;SDS011;2830;50.656;7.568;2023-03-12T03:33:20;10.57;;;4.88;;
5616;SDS011;2830;50.656;7.568;2023-03-12T03:35:47;10.43;;;3.80;;
5616;SDS011;2830;50.656;7.568;2023-03-12T03:38:13;14.52;;;4.82;;
5616;SDS011;2830;50.656;7.568;2023-03-12T03:40:40;11.85;;;4.40;;
5616;SDS011;2830;50.656;7.568;2023-03-12T03:43:07;12.00;;;5.10;;
5616;SDS011;2830;50.656;7.568;2023-03-12T03:45:34;9.60;;;3.97;;
5616;SDS011;2830;50.656;7.568;2023-03-12T03:48:00;13.95;;;4.18;;
5616;SDS011;2830;50.656;7.568;2023-03-12T03:50:27;10.43;;;4.00;;
5616;SDS011;2830;50.656;7.568;2023-03-12T03:52:54;10.82;;;4.35;;
5616;SDS011;2830;50.656;7.568;2023-03-12T03:55:21;13.05;;;4.18;;
5616;SDS011;2830;50.656;7.568;2023-03-12T03:57:47;11.45;;;4.97;;
5616;SDS011;2830;50.656;7.568;2023-03-12T04:00:14;11.25;;;3.50;;
5616;SDS011;2830;50.656;7.568;2023-03-12T04:02:43;9.77;;;3.78;;
5616;SDS011;2830;50.656;7.568;2023-03-12T04:05:10;9.75;;;4.00;;
5616;SDS011;2830;50.656;7.568;2023-03-12T04:07:36;10.23;;;4.25;;
5616;SDS011;2830;50.656;7.568;2023-03-12T04:10:04;12.25;;;4.53;;
5616;SDS011;2830;50.656;7.568;2023-03-12T04:12:31;9.55;;;3.35;;
5616;SDS011;2830;50.656;7.568;2023-03-12T04:14:57;11.35;;;3.40;;
5616;SDS011;2830;50.656;7.568;2023-03-12T04:17:24;12.57;;;4.15;;
5616;SDS011;2830;50.656;7.568;2023-03-12T04:19:51;14.90;;;3.80;;
5616;SDS011;2830;50.656;7.568;2023-03-12T04:22:18;12.85;;;3.30;;
5616;SDS011;2830;50.656;7.568;2023-03-12T04:24:44;9.45;;;2.90;;
5616;SDS011;2830;50.656;7.568;2023-03-12T04:27:11;9.18;;;3.20;;
5616;SDS011;2830;50.656;7.568;2023-03-12T04:29:39;10.82;;;2.83;;
5616;SDS011;2830;50.656;7.568;2023-03-12T04:32:07;10.10;;;3.00;;
5616;SDS011;2830;50.656;7.568;2023-03-12T04:34:33;11.73;;;2.63;;
5616;SDS011;2830;50.656;7.568;2023-03-12T04:37:00;7.57;;;2.25;;
5616;SDS011;2830;50.656;7.568;2023-03-12T04:39:28;10.15;;;2.53;;
5616;SDS011;2830;50.656;7.568;2023-03-12T04:41:54;10.50;;;2.35;;
5616;SDS011;2830;50.656;7.568;2023-03-12T04:44:21;9.80;;;2.13;;
5616;SDS011;2830;50.656;7.568;2023-03-12T04:46:48;10.10;;;2.80;;
5616;SDS011;2830;50.656;7.568;2023-03-12T04:49:15;16.10;;;4.07;;
5616;SDS011;2830;50.656;7.568;2023-03-12T04:51:41;8.15;;;2.58;;
5616;SDS011;2830;50.656;7.568;2023-03-12T04:54:08;10.65;;;3.30;;
5616;SDS011;2830;50.656;7.568;2023-03-12T04:56:35;16.25;;;3.28;;
5616;SDS011;2830;50.656;7.568;2023-03-12T04:59:01;10.40;;;3.13;;
5616;SDS011;2830;50.656;7.568;2023-03-12T05:01:32;9.60;;;3.10;;
5616;SDS011;2830;50.656;7.568;2023-03-12T05:04:02;10.15;;;2.63;;
5616;SDS011;2830;50.656;7.568;2023-03-12T05:06:29;9.10;;;2.70;;
5616;SDS011;2830;50.656;7.568;2023-03-12T05:08:56;10.23;;;2.45;;
5616;SDS011;2830;50.656;7.568;2023-03-12T05:11:23;14.80;;;2.70;;
5616;SDS011;2830;50.656;7.568;2023-03-12T05:13:50;10.32;;;2.63;;
5616;SDS011;2830;50.656;7.568;2023-03-12T05:16:17;12.90;;;2.58;;
5616;SDS011;2830;50.656;7.568;2023-03-12T05:18:44;8.10;;;2.20;;
5616;SDS011;2830;50.656;7.568;2023-03-12T05:21:13;10.45;;;3.05;;
5616;SDS011;2830;50.656;7.568;2023-03-12T05:23:41;10.50;;;3.10;;
5616;SDS011;2830;50.656;7.568;2023-03-12T05:26:19;11.43;;;3.10;;
5616;SDS011;2830;50.656;7.568;2023-03-12T05:28:51;9.82;;;2.42;;
5616;SDS011;2830;50.656;7.568;2023-03-12T05:31:17;12.10;;;2.95;;
5616;SDS011;2830;50.656;7.568;2023-03-12T05:33:44;10.82;;;2.40;;
5616;SDS011;2830;50.656;7.568;2023-03-12T05:36:12;9.18;;;2.45;;
5616;SDS011;2830;50.656;7.568;2023-03-12T05:38:39;9.18;;;2.25;;
5616;SDS011;2830;50.656;7.568;2023-03-12T05:41:08;11.40;;;2.45;;
5616;SDS011;2830;50.656;7.568;2023-03-12T05:43:42;11.65;;;2.60;;
5616;SDS011;2830;50.656;7.568;2023-03-12T05:46:09;11.35;;;2.30;;
5616;SDS011;2830;50.656;7.568;2023-03-12T05:48:36;8.90;;;2.40;;
5616;SDS011;2830;50.656;7.568;2023-03-12T05:51:02;13.68;;;3.20;;
5616;SDS011;2830;50.656;7.568;2023-03-12T05:53:29;12.23;;;2.85;;
5616;SDS011;2830;50.656;7.568;2023-03-12T05:56:01;9.05;;;1.95;;
5616;SDS011;2830;50.656;7.568;2023-03-12T05:58:28;9.55;;;2.40;;
5616;SDS011;2830;50.656;7.568;2023-03-12T06:01:01;9.98;;;2.28;;
5616;SDS011;2830;50.656;7.568;2023-03-12T06:03:29;11.98;;;2.72;;
5616;SDS011;2830;50.656;7.568;2023-03-12T06:05:56;9.30;;;2.22;;
5616;SDS011;2830;50.656;7.568;2023-03-12T06:08:23;8.98;;;2.50;;
5616;SDS011;2830;50.656;7.568;2023-03-12T06:10:50;10.68;;;2.20;;
5616;SDS011;2830;50.656;7.568;2023-03-12T06:13:20;8.55;;;2.30;;
5616;SDS011;2830;50.656;7.568;2023-03-12T06:15:47;13.27;;;2.60;;
5616;SDS011;2830;50.656;7.568;2023-03-12T06:18:14;10.88;;;2.78;;
5616;SDS011;2830;50.656;7.568;2023-03-12T06:20:41;13.98;;;3.53;;
5616;SDS011;2830;50.656;7.568;2023-03-12T06:23:08;9.20;;;2.47;;
5616;SDS011;2830;50.656;7.568;2023-03-12T06:25:34;10.50;;;3.22;;
5616;SDS011;2830;50.656;7.568;2023-03-12T06:28:01;16.60;;;3.95;;
5616;SDS011;2830;50.656;7.568;2023-03-12T06:30:28;15.35;;;2.30;;
5616;SDS011;2830;50.656;7.568;2023-03-12T06:32:54;8.50;;;2.78;;
5616;SDS011;2830;50.656;7.568;2023-03-12T06:35:21;9.57;;;2.88;;
5616;SDS011;2830;50.656;7.568;2023-03-12T06:37:48;12.75;;;2.95;;
5616;SDS011;2830;50.656;7.568;2023-03-12T06:40:14;10.52;;;2.70;;
5616;SDS011;2830;50.656;7.568;2023-03-12T06:42:41;12.75;;;3.80;;
5616;SDS011;2830;50.656;7.568;2023-03-12T06:45:08;13.55;;;3.08;;
5616;SDS011;2830;50.656;7.568;2023-03-12T06:47:35;10.52;;;3.38;;
5616;SDS011;2830;50.656;7.568;2023-03-12T06:50:01;10.10;;;3.00;;
5616;SDS011;2830;50.656;7.568;2023-03-12T06:52:28;11.52;;;3.60;;
5616;SDS011;2830;50.656;7.568;2023-03-12T06:54:55;16.52;;;4.97;;
5616;SDS011;2830;50.656;7.568;2023-03-12T06:57:22;9.75;;;3.10;;
5616;SDS011;2830;50.656;7.568;2023-03-12T06:59:48;11.05;;;4.10;;
5616;SDS011;2830;50.656;7.568;2023-03-12T07:02:15;15.50;;;5.50;;
5616;SDS011;2830;50.656;7.568;2023-03-12T07:04:43;12.75;;;4.25;;
5616;SDS011;2830;50.656;7.568;2023-03-12T07:07:09;12.40;;;5.22;;
5616;SDS011;2830;50.656;7.568;2023-03-12T07:09:37;15.85;;;4.32;;
5616;SDS011;2830;50.656;7.568;2023-03-12T07:12:03;10.25;;;4.03;;
5616;SDS011;2830;50.656;7.568;2023-03-12T07:14:30;27.20;;;11.80;;
5616;SDS011;2830;50.656;7.568;2023-03-12T07:16:57;13.45;;;3.95;;
5616;SDS011;2830;50.656;7.568;2023-03-12T07:19:27;11.02;;;3.58;;
5616;SDS011;2830;50.656;7.568;2023-03-12T07:21:55;17.48;;;4.88;;
5616;SDS011;2830;50.656;7.568;2023-03-12T07:24:22;10.85;;;4.45;;
5616;SDS011;2830;50.656;7.568;2023-03-12T07:26:48;17.75;;;5.97;;
5616;SDS011;2830;50.656;7.568;2023-03-12T07:29:15;10.98;;;3.95;;
5616;SDS011;2830;50.656;7.568;2023-03-12T07:31:42;10.93;;;3.58;;
5616;SDS011;2830;50.656;7.568;2023-03-12T07:34:08;13.57;;;3.78;;
5616;SDS011;2830;50.656;7.568;2023-03-12T07:36:35;14.32;;;4.80;;
5616;SDS011;2830;50.656;7.568;2023-03-12T07:39:02;15.30;;;8.07;;
5616;SDS011;2830;50.656;7.568;2023-03-12T07:41:29;12.95;;;5.20;;
5616;SDS011;2830;50.656;7.568;2023-03-12T07:43:56;14.82;;;6.00;;
5616;SDS011;2830;50.656;7.568;2023-03-12T07:46:23;15.75;;;7.55;;
5616;SDS011;2830;50.656;7.568;2023-03-12T07:48:49;16.38;;;7.80;;
5616;SDS011;2830;50.656;7.568;2023-03-12T07:51:16;20.52;;;4.88;;
5616;SDS011;2830;50.656;7.568;2023-03-12T07:53:42;21.20;;;6.93;;
5616;SDS011;2830;50.656;7.568;2023-03-12T07:56:09;11.32;;;7.40;;
5616;SDS011;2830;50.656;7.568;2023-03-12T07:58:36;15.25;;;4.90;;
5616;SDS011;2830;50.656;7.568;2023-03-12T08:01:04;19.38;;;5.18;;
5616;SDS011;2830;50.656;7.568;2023-03-12T08:03:31;13.68;;;4.13;;
5616;SDS011;2830;50.656;7.568;2023-03-12T08:05:59;14.10;;;4.07;;
5616;SDS011;2830;50.656;7.568;2023-03-12T08:08:27;9.68;;;3.70;;
5616;SDS011;2830;50.656;7.568;2023-03-12T08:10:55;10.75;;;4.03;;
5616;SDS011;2830;50.656;7.568;2023-03-12T08:13:22;10.68;;;3.85;;
5616;SDS011;2830;50.656;7.568;2023-03-12T08:15:50;20.50;;;4.22;;
5616;SDS011;2830;50.656;7.568;2023-03-12T08:18:18;16.02;;;4.05;;
5616;SDS011;2830;50.656;7.568;2023-03-12T08:20:48;12.35;;;4.05;;
5616;SDS011;2830;50.656;7.568;2023-03-12T08:23:16;11.27;;;4.68;;
5616;SDS011;2830;50.656;7.568;2023-03-12T08:25:44;12.30;;;4.00;;
5616;SDS011;2830;50.656;7.568;2023-03-12T08:28:12;13.15;;;3.70;;
5616;SDS011;2830;50.656;7.568;2023-03-12T08:30:43;11.23;;;3.83;;
5616;SDS011;2830;50.656;7.568;2023-03-12T08:33:11;9.32;;;3.65;;
5616;SDS011;2830;50.656;7.568;2023-03-12T08:35:38;14.30;;;4.30;;
5616;SDS011;2830;50.656;7.568;2023-03-12T08:38:04;13.23;;;3.35;;
5616;SDS011;2830;50.656;7.568;2023-03-12T08:40:31;13.90;;;4.50;;
5616;SDS011;2830;50.656;7.568;2023-03-12T08:42:58;15.13;;;4.60;;
5616;SDS011;2830;50.656;7.568;2023-03-12T08:45:24;16.50;;;3.65;;
5616;SDS011;2830;50.656;7.568;2023-03-12T08:47:51;17.08;;;4.13;;
5616;SDS011;2830;50.656;7.568;2023-03-12T08:50:18;13.75;;;4.70;;
5616;SDS011;2830;50.656;7.568;2023-03-12T08:52:47;10.43;;;4.20;;
5616;SDS011;2830;50.656;7.568;2023-03-12T08:55:14;17.83;;;5.20;;
5616;SDS011;2830;50.656;7.568;2023-03-12T08:57:41;18.15;;;4.40;;
5616;SDS011;2830;50.656;7.568;2023-03-12T09:00:07;15.10;;;5.13;;
5616;SDS011;2830;50.656;7.568;2023-03-12T09:02:42;13.27;;;4.20;;
5616;SDS011;2830;50.656;7.568;2023-03-12T09:05:12;13.82;;;5.60;;
5616;SDS011;2830;50.656;7.568;2023-03-12T09:07:39;14.05;;;4.15;;
5616;SDS011;2830;50.656;7.568;2023-03-12T09:10:06;11.10;;;4.65;;
5616;SDS011;2830;50.656;7.568;2023-03-12T09:12:33;14.15;;;4.53;;
5616;SDS011;2830;50.656;7.568;2023-03-12T09:15:00;12.60;;;4.38;;
5616;SDS011;2830;50.656;7.568;2023-03-12T09:17:30;14.70;;;5.47;;
5616;SDS011;2830;50.656;7.568;2023-03-12T09:19:56;13.10;;;4.80;;
5616;SDS011;2830;50.656;7.568;2023-03-12T09:22:23;16.75;;;5.20;;
5616;SDS011;2830;50.656;7.568;2023-03-12T09:24:50;11.70;;;5.60;;
5616;SDS011;2830;50.656;7.568;2023-03-12T09:27:16;13.82;;;5.35;;
5616;SDS011;2830;50.656;7.568;2023-03-12T09:29:43;12.65;;;5.18;;
5616;SDS011;2830;50.656;7.568;2023-03-12T09:32:24;13.27;;;5.22;;
5616;SDS011;2830;50.656;7.568;2023-03-12T09:34:52;14.73;;;5.85;;
5616;SDS011;2830;50.656;7.568;2023-03-12T09:37:19;16.13;;;5.78;;
5616;SDS011;2830;50.656;7.568;2023-03-12T09:39:49;13.43;;;5.10;;
5616;SDS011;2830;50.656;7.568;2023-03-12T09:45:17;14.43;;;5.55;;
5616;SDS011;2830;50.656;7.568;2023-03-12T09:47:54;14.82;;;5.18;;
5616;SDS011;2830;50.656;7.568;2023-03-12T09:50:25;13.65;;;4.93;;
5616;SDS011;2830;50.656;7.568;2023-03-12T09:55:50;14.15;;;4.68;;
5616;SDS011;2830;50.656;7.568;2023-03-12T09:58:25;15.10;;;5.65;;
5616;SDS011;2830;50.656;7.568;2023-03-12T10:00:59;19.83;;;6.05;;
5616;SDS011;2830;50.656;7.568;2023-03-12T10:07:33;15.50;;;4.80;;
5616;SDS011;2830;50.656;7.568;2023-03-12T10:20:29;14.73;;;5.80;;
5616;SDS011;2830;50.656;7.568;2023-03-12T10:28:19;13.10;;;5.45;;
5616;SDS011;2830;50.656;7.568;2023-03-12T10:31:02;14.65;;;4.95;;
5616;SDS011;2830;50.656;7.568;2023-03-12T10:33:37;13.30;;;4.82;;
5616;SDS011;2830;50.656;7.568;2023-03-12T10:36:20;12.10;;;4.97;;
5616;SDS011;2830;50.656;7.568;2023-03-12T10:38:52;13.30;;;4.53;;
5616;SDS011;2830;50.656;7.568;2023-03-12T10:41:20;13.57;;;4.55;;
5616;SDS011;2830;50.656;7.568;2023-03-12T10:43:48;13.48;;;5.10;;
5616;SDS011;2830;50.656;7.568;2023-03-12T10:48:59;12.57;;;4.75;;
5616;SDS011;2830;50.656;7.568;2023-03-12T10:52:04;14.05;;;5.40;;
5616;SDS011;2830;50.656;7.568;2023-03-12T10:54:45;15.07;;;5.72;;
5616;SDS011;2830;50.656;7.568;2023-03-12T10:57:13;13.90;;;5.40;;
5616;SDS011;2830;50.656;7.568;2023-03-12T10:59:42;16.25;;;5.10;;
5616;SDS011;2830;50.656;7.568;2023-03-12T11:05:00;14.20;;;5.43;;
5616;SDS011;2830;50.656;7.568;2023-03-12T11:07:32;16.42;;;5.72;;
5616;SDS011;2830;50.656;7.568;2023-03-12T11:12:34;17.02;;;6.47;;
5616;SDS011;2830;50.656;7.568;2023-03-12T11:15:24;12.38;;;5.43;;
5616;SDS011;2830;50.656;7.568;2023-03-12T11:18:11;12.40;;;5.32;;
5616;SDS011;2830;50.656;7.568;2023-03-12T11:20:42;13.13;;;6.20;;
5616;SDS011;2830;50.656;7.568;2023-03-12T11:23:16;16.10;;;5.78;;
5616;SDS011;2830;50.656;7.568;2023-03-12T11:25:55;14.40;;;6.93;;
5616;SDS011;2830;50.656;7.568;2023-03-12T11:28:33;15.23;;;6.50;;
5616;SDS011;2830;50.656;7.568;2023-03-12T11:31:04;15.52;;;5.97;;
5616;SDS011;2830;50.656;7.568;2023-03-12T11:33:34;13.70;;;5.93;;
5616;SDS011;2830;50.656;7.568;2023-03-12T11:38:42;21.58;;;5.93;;
5616;SDS011;2830;50.656;7.568;2023-03-12T11:44:25;13.25;;;5.97;;
5616;SDS011;2830;50.656;7.568;2023-03-12T11:49:57;13.30;;;5.90;;
5616;SDS011;2830;50.656;7.568;2023-03-12T11:53:15;12.20;;;5.40;;
5616;SDS011;2830;50.656;7.568;2023-03-12T12:01:31;12.40;;;5.30;;
5616;SDS011;2830;50.656;7.568;2023-03-12T12:05:03;11.70;;;5.20;;
5616;SDS011;2830;50.656;7.568;2023-03-12T12:07:34;15.97;;;5.73;;
5616;SDS011;2830;50.656;7.568;2023-03-12T12:13:05;14.10;;;5.83;;
5616;SDS011;2830;50.656;7.568;2023-03-12T12:16:13;12.57;;;4.93;;
5616;SDS011;2830;50.656;7.568;2023-03-12T12:19:22;16.13;;;5.40;;
5616;SDS011;2830;50.656;7.568;2023-03-12T12:24:37;14.10;;;6.30;;
5616;SDS011;2830;50.656;7.568;2023-03-12T12:27:29;14.87;;;6.47;;
5616;SDS011;2830;50.656;7.568;2023-03-12T12:40:42;16.30;;;6.73;;
5616;SDS011;2830;50.656;7.568;2023-03-12T12:46:13;14.83;;;6.20;;
5616;SDS011;2830;50.656;7.568;2023-03-12T12:51:48;15.57;;;7.50;;
5616;SDS011;2830;50.656;7.568;2023-03-12T12:57:17;17.23;;;7.60;;
5616;SDS011;2830;50.656;7.568;2023-03-12T13:02:24;13.90;;;5.70;;
5616;SDS011;2830;50.656;7.568;2023-03-12T13:04:59;14.50;;;5.87;;
5616;SDS011;2830;50.656;7.568;2023-03-12T13:09:57;25.40;;;13.60;;
5616;SDS011;2830;50.656;7.568;2023-03-12T13:20:32;14.73;;;5.60;;
5616;SDS011;2830;50.656;7.568;2023-03-12T13:25:57;15.90;;;6.93;;
5616;SDS011;2830;50.656;7.568;2023-03-12T13:28:56;12.30;;;4.30;;
5616;SDS011;2830;50.656;7.568;2023-03-12T13:31:37;12.30;;;3.33;;
5616;SDS011;2830;50.656;7.568;2023-03-12T13:36:49;10.47;;;2.20;;
5616;SDS011;2830;50.656;7.568;2023-03-12T13:39:31;13.70;;;2.30;;
5616;SDS011;2830;50.656;7.568;2023-03-12T13:42:00;11.90;;;2.87;;
5616;SDS011;2830;50.656;7.568;2023-03-12T13:44:45;11.17;;;2.60;;
5616;SDS011;2830;50.656;7.568;2023-03-12T13:47:25;11.70;;;2.60;;
5616;SDS011;2830;50.656;7.568;2023-03-12T13:49:54;12.57;;;2.23;;
5616;SDS011;2830;50.656;7.568;2023-03-12T13:52:27;10.77;;;2.80;;
5616;SDS011;2830;50.656;7.568;2023-03-12T13:55:06;8.90;;;1.73;;
5616;SDS011;2830;50.656;7.568;2023-03-12T13:57:47;11.83;;;2.00;;
5616;SDS011;2830;50.656;7.568;2023-03-12T14:03:19;13.80;;;1.70;;
5616;SDS011;2830;50.656;7.568;2023-03-12T14:06:11;10.10;;;1.30;;
5616;SDS011;2830;50.656;7.568;2023-03-12T14:09:18;10.20;;;1.60;;
5616;SDS011;2830;50.656;7.568;2023-03-12T14:12:07;13.87;;;1.60;;
5616;SDS011;2830;50.656;7.568;2023-03-12T14:17:27;12.70;;;1.30;;
5616;SDS011;2830;50.656;7.568;2023-03-12T14:22:33;11.00;;;1.60;;
5616;SDS011;2830;50.656;7.568;2023-03-12T14:25:13;11.40;;;1.77;;
5616;SDS011;2830;50.656;7.568;2023-03-12T14:27:49;13.10;;;1.50;;
5616;SDS011;2830;50.656;7.568;2023-03-12T14:33:19;13.77;;;2.03;;
5616;SDS011;2830;50.656;7.568;2023-03-12T14:35:54;12.63;;;1.47;;
5616;SDS011;2830;50.656;7.568;2023-03-12T14:38:29;10.67;;;1.50;;
5616;SDS011;2830;50.656;7.568;2023-03-12T14:41:06;9.77;;;1.73;;
5616;SDS011;2830;50.656;7.568;2023-03-12T14:43:59;11.20;;;1.57;;
5616;SDS011;2830;50.656;7.568;2023-03-12T14:46:43;14.10;;;2.30;;
5616;SDS011;2830;50.656;7.568;2023-03-12T14:49:18;8.13;;;1.00;;
5616;SDS011;2830;50.656;7.568;2023-03-12T14:51:45;9.23;;;1.43;;
5616;SDS011;2830;50.656;7.568;2023-03-12T14:54:15;9.97;;;1.60;;
5616;SDS011;2830;50.656;7.568;2023-03-12T14:56:49;15.10;;;4.03;;
5616;SDS011;2830;50.656;7.568;2023-03-12T14:59:24;11.47;;;2.40;;
5616;SDS011;2830;50.656;7.568;2023-03-12T15:02:15;15.70;;;3.90;;
5616;SDS011;2830;50.656;7.568;2023-03-12T15:04:44;8.77;;;1.40;;
5616;SDS011;2830;50.656;7.568;2023-03-12T15:07:12;10.30;;;1.23;;
5616;SDS011;2830;50.656;7.568;2023-03-12T15:09:45;8.23;;;1.07;;
5616;SDS011;2830;50.656;7.568;2023-03-12T15:12:19;11.57;;;2.00;;
5616;SDS011;2830;50.656;7.568;2023-03-12T15:15:04;9.40;;;2.10;;
5616;SDS011;2830;50.656;7.568;2023-03-12T15:17:35;11.20;;;1.50;;
5616;SDS011;2830;50.656;7.568;2023-03-12T15:20:03;9.57;;;1.13;;
5616;SDS011;2830;50.656;7.568;2023-03-12T15:22:35;9.00;;;1.50;;
5616;SDS011;2830;50.656;7.568;2023-03-12T15:25:13;8.70;;;1.40;;
5616;SDS011;2830;50.656;7.568;2023-03-12T15:27:46;12.40;;;1.43;;
5616;SDS011;2830;50.656;7.568;2023-03-12T15:30:25;11.00;;;1.00;;
5616;SDS011;2830;50.656;7.568;2023-03-12T15:35:30;10.73;;;1.07;;
5616;SDS011;2830;50.656;7.568;2023-03-12T15:37:57;15.40;;;1.27;;
5616;SDS011;2830;50.656;7.568;2023-03-12T15:40:25;12.77;;;2.30;;
5616;SDS011;2830;50.656;7.568;2023-03-12T15:42:53;14.20;;;1.50;;
5616;SDS011;2830;50.656;7.568;2023-03-12T15:45:33;14.30;;;1.90;;
5616;SDS011;2830;50.656;7.568;2023-03-12T15:48:03;11.87;;;2.10;;
5616;SDS011;2830;50.656;7.568;2023-03-12T15:50:41;14.67;;;2.17;;
5616;SDS011;2830;50.656;7.568;2023-03-12T15:55:39;12.07;;;2.00;;
5616;SDS011;2830;50.656;7.568;2023-03-12T15:58:26;13.60;;;2.00;;
5616;SDS011;2830;50.656;7.568;2023-03-12T16:01:16;16.80;;;2.20;;
5616;SDS011;2830;50.656;7.568;2023-03-12T16:03:49;16.83;;;1.90;;
5616;SDS011;2830;50.656;7.568;2023-03-12T16:06:22;14.10;;;3.73;;
5616;SDS011;2830;50.656;7.568;2023-03-12T16:08:52;16.30;;;2.77;;
5616;SDS011;2830;50.656;7.568;2023-03-12T16:11:26;19.00;;;3.10;;
5616;SDS011;2830;50.656;7.568;2023-03-12T16:14:16;10.40;;;1.57;;
5616;SDS011;2830;50.656;7.568;2023-03-12T16:16:55;16.87;;;2.17;;
5616;SDS011;2830;50.656;7.568;2023-03-12T16:19:22;16.83;;;2.80;;
5616;SDS011;2830;50.656;7.568;2023-03-12T16:21:49;12.33;;;1.83;;
5616;SDS011;2830;50.656;7.568;2023-03-12T16:24:16;15.87;;;2.20;;
5616;SDS011;2830;50.656;7.568;2023-03-12T16:26:50;14.80;;;2.10;;
5616;SDS011;2830;50.656;7.568;2023-03-12T16:29:19;15.47;;;2.33;;
5616;SDS011;2830;50.656;7.568;2023-03-12T16:31:50;15.17;;;2.50;;
5616;SDS011;2830;50.656;7.568;2023-03-12T16:34:20;14.90;;;2.83;;
5616;SDS011;2830;50.656;7.568;2023-03-12T16:36:47;13.83;;;1.90;;
5616;SDS011;2830;50.656;7.568;2023-03-12T16:39:14;21.17;;;4.40;;
5616;SDS011;2830;50.656;7.568;2023-03-12T16:41:43;15.00;;;2.70;;
5616;SDS011;2830;50.656;7.568;2023-03-12T16:44:14;31.80;;;4.57;;
5616;SDS011;2830;50.656;7.568;2023-03-12T16:46:45;14.00;;;2.47;;
5616;SDS011;2830;50.656;7.568;2023-03-12T16:49:15;20.37;;;4.20;;
5616;SDS011;2830;50.656;7.568;2023-03-12T16:51:43;18.87;;;3.37;;
5616;SDS011;2830;50.656;7.568;2023-03-12T16:54:09;17.80;;;2.50;;
5616;SDS011;2830;50.656;7.568;2023-03-12T16:56:37;16.83;;;2.70;;
5616;SDS011;2830;50.656;7.568;2023-03-12T16:59:21;20.33;;;3.10;;
5616;SDS011;2830;50.656;7.568;2023-03-12T17:01:50;18.73;;;3.47;;
5616;SDS011;2830;50.656;7.568;2023-03-12T17:04:17;16.77;;;2.60;;
5616;SDS011;2830;50.656;7.568;2023-03-12T17:06:44;12.50;;;2.77;;
5616;SDS011;2830;50.656;7.568;2023-03-12T17:09:10;21.13;;;3.20;;
5616;SDS011;2830;50.656;7.568;2023-03-12T17:11:37;22.83;;;3.50;;
5616;SDS011;2830;50.656;7.568;2023-03-12T17:14:10;15.73;;;2.37;;
5616;SDS011;2830;50.656;7.568;2023-03-12T17:16:41;15.50;;;3.30;;